Skip Navigation Links
NOAA logo - Click to go to the NOAA homepage
NOAA's National Weather Service
Alaska Aviation Weather Unit
  NWS logo - Click to go to the NWS homepage
Left Navbar Graphic     03 AKDT = 11 GMT

   
NOAA is celebrating 200 years of science, service, and stewardship. Visit the NOAA 200th celebration Web site to learn more.
USA.gov is the U.S. Government's official Web portal to all Federal, state and local government Web resources and services.
Facebook
NWS on Facebook

AAWU Home :: Display TAF Add Bookmark
TAF PAQT 290909Z 2909/3006 24015KT P6SM OVC010
     FM291500 23008KT P6SM SCT010 BKN015=

METAR PAQT 290553Z AUTO 21004KT 10SM CLR M28/M29 A2983 RMK SLP104 T12781294 11222 21278 56003 TSNO VIA AUTODIAL= PAQT 290653Z AUTO 24007KT 10SM FEW110 M28/M30 A2983 RMK SLP103 T12831300 TSNO VIA AUTODIAL= PAQT 290751Z AUTO 21009KT 10SM BKN012 BKN110 M27/M28 A2983 RMK TSNO VIA AUTODIAL= METAR PAQT 290753Z AUTO 22010KT 10SM BKN012 BKN110 M27/M28 A2983 RMK SLP103 T12671283 TSNO VIA AUTODIAL= METAR PAQT 290853Z AUTO 24016KT 7SM OVC011 M23/M24 A2983 RMK SLP104 T12281244 412111289 52001 TSNO VIA AUTODIAL= PAQT 290953Z AUTO 25015KT 7SM OVC010 M22/M23 A2984 RMK SLP107 T12171233 TSNO VIA AUTODIAL= METAR PAQT 291053Z AUTO 25015KT 9SM OVC011 M22/M23 A2984 RMK SLP107 T12171233 TSNO VIA AUTODIAL=
 Alaska TAF Map

NOAA's National Weather Service
Alaska Aviation Weather Unit
6930 Sand Lake Road
Anchorage, AK 99502-1845
Disclaimer
Credits
Glossary
Privacy Policy
About Us
Career Opportunities
Contact AAWU Internet Services Site last modified: April, 17th 2012